sensor_id;sensor_type;location;lat;lon;timestamp;pressure;altitude;pressure_sealevel;temperature;humidity
47082;BME280;33066;49.296;14.470;2023-05-25T00:00:53;97467.35;;;17.65;35.85
47082;BME280;33066;49.296;14.470;2023-05-25T00:03:19;97470.99;;;17.31;35.93
47082;BME280;33066;49.296;14.470;2023-05-25T00:05:44;97475.50;;;17.32;35.75
47082;BME280;33066;49.296;14.470;2023-05-25T00:08:09;97476.25;;;17.29;35.55
47082;BME280;33066;49.296;14.470;2023-05-25T00:10:34;97475.52;;;17.00;35.44
47082;BME280;33066;49.296;14.470;2023-05-25T00:12:59;97480.94;;;17.15;35.56
47082;BME280;33066;49.296;14.470;2023-05-25T00:15:24;97480.94;;;17.31;35.78
47082;BME280;33066;49.296;14.470;2023-05-25T00:17:50;97485.63;;;17.28;35.78
47082;BME280;33066;49.296;14.470;2023-05-25T00:20:15;97489.17;;;17.28;35.71
47082;BME280;33066;49.296;14.470;2023-05-25T00:22:43;97490.25;;;17.21;35.87
47082;BME280;33066;49.296;14.470;2023-05-25T00:25:06;97493.47;;;17.12;35.96
47082;BME280;33066;49.296;14.470;2023-05-25T00:27:31;97492.94;;;17.06;35.83
47082;BME280;33066;49.296;14.470;2023-05-25T00:29:57;97488.74;;;17.23;35.84
47082;BME280;33066;49.296;14.470;2023-05-25T00:32:22;97485.05;;;16.93;36.05
47082;BME280;33066;49.296;14.470;2023-05-25T00:34:48;97480.46;;;16.90;36.15
47082;BME280;33066;49.296;14.470;2023-05-25T00:37:14;97481.92;;;16.86;36.12
47082;BME280;33066;49.296;14.470;2023-05-25T00:39:39;97483.28;;;17.12;36.22
47082;BME280;33066;49.296;14.470;2023-05-25T00:42:04;97483.43;;;16.84;36.31
47082;BME280;33066;49.296;14.470;2023-05-25T00:44:29;97482.14;;;16.80;36.28
47082;BME280;33066;49.296;14.470;2023-05-25T00:46:54;97478.63;;;16.78;36.19
47082;BME280;33066;49.296;14.470;2023-05-25T00:49:21;97476.41;;;16.75;36.26
47082;BME280;33066;49.296;14.470;2023-05-25T00:51:46;97480.50;;;16.75;36.25
47082;BME280;33066;49.296;14.470;2023-05-25T00:54:10;97484.30;;;16.71;36.28
47082;BME280;33066;49.296;14.470;2023-05-25T00:56:39;97485.07;;;16.59;36.35
47082;BME280;33066;49.296;14.470;2023-05-25T00:59:05;97482.47;;;16.48;36.50
47082;BME280;33066;49.296;14.470;2023-05-25T01:01:27;97483.14;;;16.49;36.42
47082;BME280;33066;49.296;14.470;2023-05-25T01:03:54;97483.51;;;16.65;36.53
47082;BME280;33066;49.296;14.470;2023-05-25T01:06:20;97482.51;;;16.41;36.56
47082;BME280;33066;49.296;14.470;2023-05-25T01:08:48;97479.79;;;16.64;36.78
47082;BME280;33066;49.296;14.470;2023-05-25T01:11:10;97485.44;;;16.64;36.69
47082;BME280;33066;49.296;14.470;2023-05-25T01:13:34;97485.67;;;16.41;36.73
47082;BME280;33066;49.296;14.470;2023-05-25T01:15:59;97489.99;;;16.43;36.69
47082;BME280;33066;49.296;14.470;2023-05-25T01:18:25;97497.00;;;16.41;36.68
47082;BME280;33066;49.296;14.470;2023-05-25T01:20:54;97494.86;;;16.42;36.47
47082;BME280;33066;49.296;14.470;2023-05-25T01:23:16;97491.22;;;16.56;36.35
47082;BME280;33066;49.296;14.470;2023-05-25T01:25:46;97488.51;;;16.61;36.37
47082;BME280;33066;49.296;14.470;2023-05-25T01:28:09;97489.55;;;16.37;36.36
47082;BME280;33066;49.296;14.470;2023-05-25T01:30:32;97494.00;;;16.54;36.49
47082;BME280;33066;49.296;14.470;2023-05-25T01:32:59;97492.35;;;16.18;36.66
47082;BME280;33066;49.296;14.470;2023-05-25T01:35:23;97488.90;;;16.32;36.82
47082;BME280;33066;49.296;14.470;2023-05-25T01:37:49;97490.04;;;16.46;37.00
47082;BME280;33066;49.296;14.470;2023-05-25T01:40:14;97490.70;;;16.43;36.85
47082;BME280;33066;49.296;14.470;2023-05-25T01:42:40;97493.54;;;16.40;36.79
47082;BME280;33066;49.296;14.470;2023-05-25T01:45:07;97498.59;;;16.33;36.87
47082;BME280;33066;49.296;14.470;2023-05-25T01:47:39;97496.58;;;16.37;36.84
47082;BME280;33066;49.296;14.470;2023-05-25T01:50:03;97496.00;;;16.11;36.63
47082;BME280;33066;49.296;14.470;2023-05-25T01:52:24;97496.26;;;16.31;36.62
47082;BME280;33066;49.296;14.470;2023-05-25T01:54:52;97496.19;;;16.31;36.59
47082;BME280;33066;49.296;14.470;2023-05-25T01:57:14;97496.45;;;16.37;36.59
47082;BME280;33066;49.296;14.470;2023-05-25T01:59:39;97496.38;;;16.13;36.30
47082;BME280;33066;49.296;14.470;2023-05-25T02:02:06;97497.74;;;16.34;36.08
47082;BME280;33066;49.296;14.470;2023-05-25T02:04:28;97498.46;;;15.83;36.31
47082;BME280;33066;49.296;14.470;2023-05-25T02:06:54;97498.25;;;16.36;36.15
47082;BME280;33066;49.296;14.470;2023-05-25T02:09:19;97499.42;;;16.19;36.19
47082;BME280;33066;49.296;14.470;2023-05-25T02:11:45;97502.45;;;16.43;36.10
47082;BME280;33066;49.296;14.470;2023-05-25T02:14:10;97504.80;;;16.37;36.06
47082;BME280;33066;49.296;14.470;2023-05-25T02:16:36;97503.84;;;16.10;35.98
47082;BME280;33066;49.296;14.470;2023-05-25T02:19:01;97501.28;;;16.38;35.99
47082;BME280;33066;49.296;14.470;2023-05-25T02:21:28;97500.82;;;16.13;35.86
47082;BME280;33066;49.296;14.470;2023-05-25T02:23:52;97499.89;;;16.04;36.07
47082;BME280;33066;49.296;14.470;2023-05-25T02:26:17;97497.18;;;16.14;36.39
47082;BME280;33066;49.296;14.470;2023-05-25T02:28:42;97495.90;;;16.06;36.55
47082;BME280;33066;49.296;14.470;2023-05-25T02:31:08;97495.05;;;16.01;36.59
47082;BME280;33066;49.296;14.470;2023-05-25T02:33:33;97497.27;;;15.76;36.56
47082;BME280;33066;49.296;14.470;2023-05-25T02:35:58;97493.59;;;15.96;36.53
47082;BME280;33066;49.296;14.470;2023-05-25T02:38:23;97492.92;;;15.90;36.67
47082;BME280;33066;49.296;14.470;2023-05-25T02:40:49;97495.65;;;15.85;36.71
47082;BME280;33066;49.296;14.470;2023-05-25T02:43:14;97493.53;;;15.84;36.61
47082;BME280;33066;49.296;14.470;2023-05-25T02:45:40;97492.71;;;15.89;36.67
47082;BME280;33066;49.296;14.470;2023-05-25T02:48:06;97490.81;;;15.81;36.82
47082;BME280;33066;49.296;14.470;2023-05-25T02:50:31;97489.59;;;15.80;37.10
47082;BME280;33066;49.296;14.470;2023-05-25T02:52:57;97489.42;;;15.80;36.87
47082;BME280;33066;49.296;14.470;2023-05-25T02:55:24;97489.24;;;15.84;36.74
47082;BME280;33066;49.296;14.470;2023-05-25T02:57:47;97491.24;;;15.81;36.59
47082;BME280;33066;49.296;14.470;2023-05-25T03:00:14;97487.37;;;15.72;36.58
47082;BME280;33066;49.296;14.470;2023-05-25T03:02:38;97490.03;;;15.67;36.65
47082;BME280;33066;49.296;14.470;2023-05-25T03:05:04;97491.04;;;15.60;36.87
47082;BME280;33066;49.296;14.470;2023-05-25T03:07:28;97490.81;;;15.57;36.82
47082;BME280;33066;49.296;14.470;2023-05-25T03:09:54;97497.06;;;15.52;36.76
47082;BME280;33066;49.296;14.470;2023-05-25T03:13:00;97502.13;;;15.77;35.60
47082;BME280;33066;49.296;14.470;2023-05-25T03:15:25;97503.01;;;16.31;35.07
47082;BME280;33066;49.296;14.470;2023-05-25T03:17:50;97502.73;;;15.73;35.36
47082;BME280;33066;49.296;14.470;2023-05-25T03:20:16;97501.53;;;15.74;35.63
47082;BME280;33066;49.296;14.470;2023-05-25T03:22:41;97498.80;;;15.56;35.90
47082;BME280;33066;49.296;14.470;2023-05-25T03:25:08;97504.96;;;15.37;36.01
47082;BME280;33066;49.296;14.470;2023-05-25T03:27:31;97509.37;;;15.30;36.05
47082;BME280;33066;49.296;14.470;2023-05-25T03:29:57;97514.66;;;15.33;36.12
47082;BME280;33066;49.296;14.470;2023-05-25T03:32:22;97518.65;;;15.35;36.10
47082;BME280;33066;49.296;14.470;2023-05-25T03:34:48;97521.12;;;15.78;36.24
47082;BME280;33066;49.296;14.470;2023-05-25T03:37:13;97519.66;;;15.62;36.26
47082;BME280;33066;49.296;14.470;2023-05-25T03:39:39;97524.35;;;15.63;36.23
47082;BME280;33066;49.296;14.470;2023-05-25T03:42:05;97528.73;;;15.46;36.28
47082;BME280;33066;49.296;14.470;2023-05-25T03:44:30;97529.29;;;15.42;36.14
47082;BME280;33066;49.296;14.470;2023-05-25T03:46:56;97532.23;;;15.38;36.09
47082;BME280;33066;49.296;14.470;2023-05-25T03:49:21;97536.66;;;15.30;36.19
47082;BME280;33066;49.296;14.470;2023-05-25T03:51:46;97542.58;;;15.25;36.20
47082;BME280;33066;49.296;14.470;2023-05-25T03:54:12;97545.35;;;15.19;36.27
47082;BME280;33066;49.296;14.470;2023-05-25T03:56:37;97543.14;;;15.41;36.30
47082;BME280;33066;49.296;14.470;2023-05-25T03:59:03;97538.30;;;15.18;36.42
47082;BME280;33066;49.296;14.470;2023-05-25T04:01:28;97534.99;;;15.69;36.55
47082;BME280;33066;49.296;14.470;2023-05-25T04:03:55;97534.70;;;15.41;36.83
47082;BME280;33066;49.296;14.470;2023-05-25T04:06:19;97531.85;;;15.21;37.24
47082;BME280;33066;49.296;14.470;2023-05-25T04:08:44;97533.28;;;15.28;37.12
47082;BME280;33066;49.296;14.470;2023-05-25T04:11:09;97540.41;;;15.32;37.20
47082;BME280;33066;49.296;14.470;2023-05-25T04:13:35;97547.47;;;15.59;37.15
47082;BME280;33066;49.296;14.470;2023-05-25T04:16:00;97552.61;;;15.40;36.98
47082;BME280;33066;49.296;14.470;2023-05-25T04:18:26;97551.01;;;15.45;36.91
47082;BME280;33066;49.296;14.470;2023-05-25T04:20:51;97548.79;;;15.47;36.71
47082;BME280;33066;49.296;14.470;2023-05-25T04:23:17;97547.20;;;15.53;36.59
47082;BME280;33066;49.296;14.470;2023-05-25T04:25:42;97544.83;;;15.63;36.69
47082;BME280;33066;49.296;14.470;2023-05-25T04:28:07;97544.16;;;15.65;36.67
47082;BME280;33066;49.296;14.470;2023-05-25T04:30:33;97544.83;;;15.68;36.48
47082;BME280;33066;49.296;14.470;2023-05-25T04:32:58;97551.58;;;15.75;36.77
47082;BME280;33066;49.296;14.470;2023-05-25T04:35:24;97559.17;;;15.56;36.57
47082;BME280;33066;49.296;14.470;2023-05-25T04:37:49;97557.60;;;15.79;36.60
47082;BME280;33066;49.296;14.470;2023-05-25T04:40:15;97557.92;;;15.79;36.48
47082;BME280;33066;49.296;14.470;2023-05-25T04:42:41;97563.55;;;15.85;36.52
47082;BME280;33066;49.296;14.470;2023-05-25T04:45:07;97568.79;;;16.00;36.42
47082;BME280;33066;49.296;14.470;2023-05-25T04:47:32;97569.66;;;16.08;36.47
47082;BME280;33066;49.296;14.470;2023-05-25T04:49:56;97565.85;;;16.12;36.58
47082;BME280;33066;49.296;14.470;2023-05-25T04:52:21;97564.90;;;16.16;36.58
47082;BME280;33066;49.296;14.470;2023-05-25T04:54:47;97568.44;;;16.00;36.69
47082;BME280;33066;49.296;14.470;2023-05-25T04:57:13;97566.24;;;16.34;37.23
47082;BME280;33066;49.296;14.470;2023-05-25T04:59:38;97562.44;;;16.41;36.52
47082;BME280;33066;49.296;14.470;2023-05-25T05:02:04;97563.16;;;16.22;36.26
47082;BME280;33066;49.296;14.470;2023-05-25T05:04:30;97567.41;;;16.25;36.09
47082;BME280;33066;49.296;14.470;2023-05-25T05:06:56;97570.04;;;16.31;35.92
47082;BME280;33066;49.296;14.470;2023-05-25T05:09:21;97567.94;;;16.33;35.82
47082;BME280;33066;49.296;14.470;2023-05-25T05:11:46;97568.77;;;16.64;35.82
47082;BME280;33066;49.296;14.470;2023-05-25T05:14:12;97566.16;;;16.70;35.71
47082;BME280;33066;49.296;14.470;2023-05-25T05:16:38;97566.96;;;16.26;35.50
47082;BME280;33066;49.296;14.470;2023-05-25T05:19:03;97571.94;;;16.36;35.24
47082;BME280;33066;49.296;14.470;2023-05-25T05:21:28;97571.60;;;16.74;35.67
47082;BME280;33066;49.296;14.470;2023-05-25T05:23:54;97571.92;;;16.84;35.90
47082;BME280;33066;49.296;14.470;2023-05-25T05:26:19;97574.75;;;16.74;35.98
47082;BME280;33066;49.296;14.470;2023-05-25T05:28:44;97571.01;;;16.86;35.91
47082;BME280;33066;49.296;14.470;2023-05-25T05:31:10;97568.57;;;16.94;35.54
47082;BME280;33066;49.296;14.470;2023-05-25T05:33:35;97570.54;;;17.00;35.44
47082;BME280;33066;49.296;14.470;2023-05-25T05:36:01;97573.00;;;17.04;35.57
47082;BME280;33066;49.296;14.470;2023-05-25T05:38:26;97574.36;;;17.40;35.26
47082;BME280;33066;49.296;14.470;2023-05-25T05:40:51;97574.95;;;17.00;35.02
47082;BME280;33066;49.296;14.470;2023-05-25T05:43:16;97571.90;;;17.08;34.95
47082;BME280;33066;49.296;14.470;2023-05-25T05:45:42;97575.19;;;16.98;34.77
47082;BME280;33066;49.296;14.470;2023-05-25T05:48:07;97574.25;;;17.25;34.34
47082;BME280;33066;49.296;14.470;2023-05-25T05:50:33;97578.01;;;17.29;34.56
47082;BME280;33066;49.296;14.470;2023-05-25T05:52:58;97574.05;;;17.33;34.18
47082;BME280;33066;49.296;14.470;2023-05-25T05:55:24;97572.25;;;17.33;34.12
47082;BME280;33066;49.296;14.470;2023-05-25T05:57:50;97573.33;;;17.37;33.95
47082;BME280;33066;49.296;14.470;2023-05-25T06:00:16;97575.69;;;17.50;33.33
47082;BME280;33066;49.296;14.470;2023-05-25T06:02:40;97578.79;;;17.69;33.44
47082;BME280;33066;49.296;14.470;2023-05-25T06:05:06;97576.31;;;17.61;33.32
47082;BME280;33066;49.296;14.470;2023-05-25T06:07:31;97575.44;;;17.35;33.00
47082;BME280;33066;49.296;14.470;2023-05-25T06:09:57;97575.42;;;17.49;33.21
47082;BME280;33066;49.296;14.470;2023-05-25T06:12:22;97574.03;;;17.55;33.18
47082;BME280;33066;49.296;14.470;2023-05-25T06:14:48;97570.18;;;17.53;33.19
47082;BME280;33066;49.296;14.470;2023-05-25T06:17:14;97568.57;;;17.65;33.36
47082;BME280;33066;49.296;14.470;2023-05-25T06:19:39;97571.37;;;17.45;33.48
47082;BME280;33066;49.296;14.470;2023-05-25T06:22:04;97573.29;;;17.42;33.66
47082;BME280;33066;49.296;14.470;2023-05-25T06:24:29;97575.04;;;17.75;33.91
47082;BME280;33066;49.296;14.470;2023-05-25T06:26:55;97575.90;;;17.95;34.06
47082;BME280;33066;49.296;14.470;2023-05-25T06:29:20;97578.54;;;17.99;33.73
47082;BME280;33066;49.296;14.470;2023-05-25T06:31:46;97581.25;;;17.47;33.98
47082;BME280;33066;49.296;14.470;2023-05-25T06:34:12;97582.56;;;17.81;34.00
47082;BME280;33066;49.296;14.470;2023-05-25T06:36:37;97586.43;;;17.84;34.15
47082;BME280;33066;49.296;14.470;2023-05-25T06:39:03;97586.33;;;17.71;34.10
47082;BME280;33066;49.296;14.470;2023-05-25T06:41:29;97587.91;;;18.09;34.24
47082;BME280;33066;49.296;14.470;2023-05-25T06:43:54;97588.61;;;17.88;34.03
47082;BME280;33066;49.296;14.470;2023-05-25T06:46:20;97586.82;;;17.91;34.17
47082;BME280;33066;49.296;14.470;2023-05-25T06:48:46;97586.00;;;17.91;34.03
47082;BME280;33066;49.296;14.470;2023-05-25T06:51:12;97589.06;;;17.99;33.96
47082;BME280;33066;49.296;14.470;2023-05-25T06:53:37;97587.76;;;17.74;33.65
47082;BME280;33066;49.296;14.470;2023-05-25T06:56:03;97587.41;;;18.06;33.83
47082;BME280;33066;49.296;14.470;2023-05-25T06:58:28;97589.60;;;18.07;33.94
47082;BME280;33066;49.296;14.470;2023-05-25T07:00:54;97592.39;;;18.22;33.94
47082;BME280;33066;49.296;14.470;2023-05-25T07:03:19;97595.00;;;18.21;33.95
47082;BME280;33066;49.296;14.470;2023-05-25T07:05:45;97595.46;;;18.25;34.11
47082;BME280;33066;49.296;14.470;2023-05-25T07:08:11;97596.38;;;18.42;34.15
47082;BME280;33066;49.296;14.470;2023-05-25T07:10:36;97596.27;;;18.41;34.01
47082;BME280;33066;49.296;14.470;2023-05-25T07:13:02;97594.59;;;18.48;33.92
47082;BME280;33066;49.296;14.470;2023-05-25T07:15:27;97600.25;;;18.36;33.94
47082;BME280;33066;49.296;14.470;2023-05-25T07:17:53;97596.37;;;18.42;34.12
47082;BME280;33066;49.296;14.470;2023-05-25T07:20:19;97600.05;;;18.35;34.12
47082;BME280;33066;49.296;14.470;2023-05-25T07:22:46;97595.01;;;18.50;34.25
47082;BME280;33066;49.296;14.470;2023-05-25T07:25:10;97591.50;;;18.54;34.41
47082;BME280;33066;49.296;14.470;2023-05-25T07:27:37;97595.23;;;18.55;34.41
47082;BME280;33066;49.296;14.470;2023-05-25T07:30:02;97594.60;;;18.67;34.22
47082;BME280;33066;49.296;14.470;2023-05-25T07:32:27;97590.37;;;18.43;33.97
47082;BME280;33066;49.296;14.470;2023-05-25T07:34:53;97592.97;;;18.55;34.24
47082;BME280;33066;49.296;14.470;2023-05-25T07:37:18;97597.88;;;18.52;34.18
47082;BME280;33066;49.296;14.470;2023-05-25T07:39:44;97601.25;;;18.99;34.23
47082;BME280;33066;49.296;14.470;2023-05-25T07:42:09;97600.22;;;19.09;34.08
47082;BME280;33066;49.296;14.470;2023-05-25T07:44:34;97604.40;;;18.85;34.06
47082;BME280;33066;49.296;14.470;2023-05-25T07:47:00;97605.03;;;18.62;33.98
47082;BME280;33066;49.296;14.470;2023-05-25T07:49:26;97603.86;;;18.92;33.95
47082;BME280;33066;49.296;14.470;2023-05-25T07:51:51;97604.71;;;19.00;33.94
47082;BME280;33066;49.296;14.470;2023-05-25T07:54:17;97603.39;;;18.67;33.77
47082;BME280;33066;49.296;14.470;2023-05-25T07:56:42;97603.60;;;18.85;33.76
47082;BME280;33066;49.296;14.470;2023-05-25T07:59:08;97603.24;;;19.05;33.75
47082;BME280;33066;49.296;14.470;2023-05-25T08:01:33;97602.03;;;18.99;33.71
47082;BME280;33066;49.296;14.470;2023-05-25T08:04:00;97599.95;;;19.28;33.53
47082;BME280;33066;49.296;14.470;2023-05-25T08:06:25;97595.74;;;19.44;33.60
47082;BME280;33066;49.296;14.470;2023-05-25T08:08:50;97593.04;;;19.15;33.53
47082;BME280;33066;49.296;14.470;2023-05-25T08:11:16;97592.96;;;19.26;33.48
47082;BME280;33066;49.296;14.470;2023-05-25T08:13:41;97592.85;;;19.39;33.34
47082;BME280;33066;49.296;14.470;2023-05-25T08:16:06;97598.15;;;19.58;33.50
47082;BME280;33066;49.296;14.470;2023-05-25T08:18:32;97600.00;;;19.35;33.35
47082;BME280;33066;49.296;14.470;2023-05-25T08:20:57;97595.77;;;19.92;32.73
47082;BME280;33066;49.296;14.470;2023-05-25T08:23:23;97597.80;;;19.70;32.50
47082;BME280;33066;49.296;14.470;2023-05-25T08:25:48;97594.36;;;19.65;32.73
47082;BME280;33066;49.296;14.470;2023-05-25T08:28:13;97596.18;;;19.63;32.99
47082;BME280;33066;49.296;14.470;2023-05-25T08:30:39;97592.41;;;19.60;32.89
47082;BME280;33066;49.296;14.470;2023-05-25T08:33:04;97591.63;;;20.01;32.80
47082;BME280;33066;49.296;14.470;2023-05-25T08:35:29;97591.19;;;19.88;32.27
47082;BME280;33066;49.296;14.470;2023-05-25T08:37:56;97591.25;;;19.78;32.14
47082;BME280;33066;49.296;14.470;2023-05-25T08:40:22;97592.07;;;20.11;32.56
47082;BME280;33066;49.296;14.470;2023-05-25T08:42:46;97592.67;;;19.72;32.22
47082;BME280;33066;49.296;14.470;2023-05-25T08:45:11;97592.60;;;19.98;32.27
47082;BME280;33066;49.296;14.470;2023-05-25T08:47:40;97593.64;;;20.21;32.47
47082;BME280;33066;49.296;14.470;2023-05-25T08:50:02;97596.45;;;20.36;32.61
47082;BME280;33066;49.296;14.470;2023-05-25T08:52:28;97595.31;;;19.90;32.58
47082;BME280;33066;49.296;14.470;2023-05-25T08:54:54;97592.77;;;20.32;32.34
47082;BME280;33066;49.296;14.470;2023-05-25T08:57:22;97599.56;;;20.33;32.33
47082;BME280;33066;49.296;14.470;2023-05-25T08:59:49;97597.91;;;20.57;31.81
47082;BME280;33066;49.296;14.470;2023-05-25T09:02:20;97594.26;;;20.72;31.68
47082;BME280;33066;49.296;14.470;2023-05-25T09:04:34;97596.20;;;20.77;31.59
47082;BME280;33066;49.296;14.470;2023-05-25T09:07:01;97591.46;;;20.93;31.19
47082;BME280;33066;49.296;14.470;2023-05-25T09:09:25;97597.14;;;20.85;31.50
47082;BME280;33066;49.296;14.470;2023-05-25T09:11:51;97598.71;;;21.19;31.11
47082;BME280;33066;49.296;14.470;2023-05-25T09:14:16;97597.53;;;21.17;30.57
47082;BME280;33066;49.296;14.470;2023-05-25T09:16:44;97596.89;;;21.05;30.38
47082;BME280;33066;49.296;14.470;2023-05-25T09:19:07;97598.35;;;21.13;30.78
47082;BME280;33066;49.296;14.470;2023-05-25T09:21:32;97603.27;;;20.91;30.86
47082;BME280;33066;49.296;14.470;2023-05-25T09:23:58;97600.77;;;21.06;30.38
47082;BME280;33066;49.296;14.470;2023-05-25T09:26:22;97597.35;;;21.31;30.41
47082;BME280;33066;49.296;14.470;2023-05-25T09:28:48;97599.74;;;21.25;30.59
47082;BME280;33066;49.296;14.470;2023-05-25T09:31:14;97600.74;;;21.31;30.27
47082;BME280;33066;49.296;14.470;2023-05-25T09:33:39;97599.85;;;21.26;30.07
47082;BME280;33066;49.296;14.470;2023-05-25T09:36:05;97598.41;;;21.56;30.02
47082;BME280;33066;49.296;14.470;2023-05-25T09:38:29;97600.61;;;21.65;29.75
47082;BME280;33066;49.296;14.470;2023-05-25T09:40:55;97602.23;;;21.77;28.88
47082;BME280;33066;49.296;14.470;2023-05-25T09:43:20;97598.88;;;21.59;29.18
47082;BME280;33066;49.296;14.470;2023-05-25T09:45:46;97595.28;;;21.69;29.66
47082;BME280;33066;49.296;14.470;2023-05-25T09:48:11;97593.43;;;21.83;29.76
47082;BME280;33066;49.296;14.470;2023-05-25T09:50:36;97590.48;;;21.94;29.53
47082;BME280;33066;49.296;14.470;2023-05-25T09:53:01;97590.58;;;22.00;29.21
47082;BME280;33066;49.296;14.470;2023-05-25T09:55:27;97587.03;;;22.10;29.20
47082;BME280;33066;49.296;14.470;2023-05-25T09:57:52;97591.42;;;22.05;29.77
47082;BME280;33066;49.296;14.470;2023-05-25T10:00:17;97592.51;;;22.19;29.37
47082;BME280;33066;49.296;14.470;2023-05-25T10:02:43;97590.75;;;22.33;29.48
47082;BME280;33066;49.296;14.470;2023-05-25T10:05:08;97592.08;;;22.54;28.50
47082;BME280;33066;49.296;14.470;2023-05-25T10:07:34;97591.96;;;22.41;28.74
47082;BME280;33066;49.296;14.470;2023-05-25T10:10:00;97587.17;;;22.58;28.93
47082;BME280;33066;49.296;14.470;2023-05-25T10:12:24;97585.65;;;22.51;28.62
47082;BME280;33066;49.296;14.470;2023-05-25T10:14:50;97583.20;;;22.77;28.82
47082;BME280;33066;49.296;14.470;2023-05-25T10:17:21;97583.16;;;23.17;28.53
47082;BME280;33066;49.296;14.470;2023-05-25T10:19:48;97577.10;;;23.45;28.11
47082;BME280;33066;49.296;14.470;2023-05-25T10:22:13;97571.82;;;23.46;27.69
47082;BME280;33066;49.296;14.470;2023-05-25T10:24:37;97565.94;;;23.81;28.20
47082;BME280;33066;49.296;14.470;2023-05-25T10:26:58;97562.61;;;24.14;27.36
47082;BME280;33066;49.296;14.470;2023-05-25T10:29:23;97562.04;;;24.62;27.68
47082;BME280;33066;49.296;14.470;2023-05-25T10:31:48;97559.28;;;24.92;27.12
47082;BME280;33066;49.296;14.470;2023-05-25T10:34:15;97562.06;;;24.97;26.27
47082;BME280;33066;49.296;14.470;2023-05-25T10:36:38;97558.35;;;24.59;26.22
47082;BME280;33066;49.296;14.470;2023-05-25T10:39:07;97556.32;;;24.84;25.93
47082;BME280;33066;49.296;14.470;2023-05-25T10:41:30;97548.99;;;24.81;25.94
47082;BME280;33066;49.296;14.470;2023-05-25T10:43:55;97548.31;;;24.95;26.21
47082;BME280;33066;49.296;14.470;2023-05-25T10:46:19;97547.47;;;25.12;26.37
47082;BME280;33066;49.296;14.470;2023-05-25T10:48:45;97548.23;;;25.32;26.66
47082;BME280;33066;49.296;14.470;2023-05-25T10:51:10;97541.52;;;25.49;26.20
47082;BME280;33066;49.296;14.470;2023-05-25T10:53:36;97540.73;;;25.55;26.07
47082;BME280;33066;49.296;14.470;2023-05-25T10:56:02;97543.54;;;25.86;26.61
47082;BME280;33066;49.296;14.470;2023-05-25T10:58:28;97541.28;;;25.95;25.38
47082;BME280;33066;49.296;14.470;2023-05-25T11:00:58;97538.54;;;26.40;26.54
47082;BME280;33066;49.296;14.470;2023-05-25T11:03:17;97539.69;;;26.71;25.85
47082;BME280;33066;49.296;14.470;2023-05-25T11:05:49;97534.85;;;26.53;24.08
47082;BME280;33066;49.296;14.470;2023-05-25T11:08:09;97537.72;;;26.30;24.09
47082;BME280;33066;49.296;14.470;2023-05-25T11:10:42;97537.95;;;26.80;25.10
47082;BME280;33066;49.296;14.470;2023-05-25T11:15:23;97528.64;;;27.17;25.07
47082;BME280;33066;49.296;14.470;2023-05-25T11:17:58;97529.67;;;26.92;23.95
47082;BME280;33066;49.296;14.470;2023-05-25T11:20:21;97527.83;;;26.87;24.21
47082;BME280;33066;49.296;14.470;2023-05-25T11:22:40;97528.83;;;27.32;24.99
47082;BME280;33066;49.296;14.470;2023-05-25T11:27:40;97517.95;;;27.61;23.86
47082;BME280;33066;49.296;14.470;2023-05-25T11:29:59;97519.69;;;27.27;23.62
47082;BME280;33066;49.296;14.470;2023-05-25T11:32:24;97519.39;;;27.32;23.67
47082;BME280;33066;49.296;14.470;2023-05-25T11:34:51;97520.89;;;27.54;23.41
47082;BME280;33066;49.296;14.470;2023-05-25T11:37:15;97518.50;;;27.85;23.86
47082;BME280;33066;49.296;14.470;2023-05-25T11:39:40;97510.83;;;27.94;23.76
47082;BME280;33066;49.296;14.470;2023-05-25T11:42:05;97510.76;;;28.33;23.47
47082;BME280;33066;49.296;14.470;2023-05-25T11:44:32;97512.94;;;28.71;23.72
47082;BME280;33066;49.296;14.470;2023-05-25T11:47:01;97509.62;;;29.00;23.70
47082;BME280;33066;49.296;14.470;2023-05-25T11:49:23;97506.33;;;28.80;23.29
47082;BME280;33066;49.296;14.470;2023-05-25T11:51:49;97514.02;;;28.71;22.29
47082;BME280;33066;49.296;14.470;2023-05-25T11:54:20;97505.03;;;28.86;22.32
47082;BME280;33066;49.296;14.470;2023-05-25T11:56:40;97506.16;;;29.43;22.22
47082;BME280;33066;49.296;14.470;2023-05-25T11:59:06;97503.52;;;29.20;21.23
47082;BME280;33066;49.296;14.470;2023-05-25T12:01:33;97503.90;;;28.93;21.27
47082;BME280;33066;49.296;14.470;2023-05-25T12:03:57;97505.15;;;28.94;21.08
47082;BME280;33066;49.296;14.470;2023-05-25T12:06:24;97505.79;;;29.36;20.91
47082;BME280;33066;49.296;14.470;2023-05-25T12:08:48;97503.40;;;29.07;20.81
47082;BME280;33066;49.296;14.470;2023-05-25T12:11:13;97498.69;;;29.38;21.90
47082;BME280;33066;49.296;14.470;2023-05-25T12:13:40;97499.72;;;29.41;20.51
47082;BME280;33066;49.296;14.470;2023-05-25T12:16:05;97503.46;;;29.32;20.20
47082;BME280;33066;49.296;14.470;2023-05-25T12:18:31;97503.27;;;29.26;20.62
47082;BME280;33066;49.296;14.470;2023-05-25T12:20:56;97502.58;;;29.31;20.24
47082;BME280;33066;49.296;14.470;2023-05-25T12:23:22;97502.40;;;29.75;20.69
47082;BME280;33066;49.296;14.470;2023-05-25T12:25:47;97497.79;;;29.95;21.35
47082;BME280;33066;49.296;14.470;2023-05-25T12:28:14;97496.62;;;30.19;19.53
47082;BME280;33066;49.296;14.470;2023-05-25T12:30:39;97495.65;;;30.19;19.84
47082;BME280;33066;49.296;14.470;2023-05-25T12:33:05;97493.36;;;30.34;20.67
47082;BME280;33066;49.296;14.470;2023-05-25T12:35:44;97492.57;;;30.70;20.28
47082;BME280;33066;49.296;14.470;2023-05-25T12:40:22;97487.39;;;30.81;20.71
47082;BME280;33066;49.296;14.470;2023-05-25T12:42:54;97485.36;;;30.89;20.09
47082;BME280;33066;49.296;14.470;2023-05-25T12:45:13;97489.86;;;30.84;20.08
47082;BME280;33066;49.296;14.470;2023-05-25T12:47:38;97490.06;;;30.95;19.54